createdAt,value
2023-01-04T06:03:10.757Z,100107.38
2023-01-04T06:05:37.433Z,100101.06
2023-01-04T06:08:04.571Z,100101.13
2023-01-04T06:10:31.205Z,100100.03
2023-01-04T06:12:58.399Z,100099.16
2023-01-04T06:15:24.991Z,100092.84
2023-01-04T06:17:52.191Z,100101.63
2023-01-04T06:20:18.772Z,100097.00
2023-01-04T06:22:45.994Z,100091.59
2023-01-04T06:25:12.584Z,100090.75
2023-01-04T06:27:39.792Z,100078.22
2023-01-04T06:30:07.158Z,100070.25
2023-01-04T06:32:34.271Z,100072.00
2023-01-04T06:35:00.875Z,100069.16
2023-01-04T06:37:28.550Z,100077.88
2023-01-04T06:39:55.127Z,100068.94
2023-01-04T06:42:41.047Z,100069.88
2023-01-04T06:45:08.003Z,100066.25
2023-01-04T06:47:34.934Z,100063.53
2023-01-04T06:50:01.607Z,100072.44
2023-01-04T06:52:28.879Z,100069.78
2023-01-04T06:54:55.425Z,100068.84
2023-01-04T06:57:22.671Z,100063.47
2023-01-04T06:59:49.272Z,100052.75
2023-01-04T07:02:17.382Z,100039.41
2023-01-04T07:04:44.219Z,100049.09
2023-01-04T07:07:11.893Z,100043.81
2023-01-04T07:09:38.628Z,100031.34
2023-01-04T07:12:06.334Z,100040.19
2023-01-04T07:14:35.291Z,100034.84
2023-01-04T07:17:02.217Z,100038.50
2023-01-04T07:19:28.820Z,100043.72
2023-01-04T07:21:56.133Z,100034.94
2023-01-04T07:24:28.092Z,100033.91
2023-01-04T07:26:57.501Z,100026.75
2023-01-04T07:29:24.107Z,100042.59
2023-01-04T07:31:52.701Z,100033.63
2023-01-04T07:34:22.005Z,100026.53
2023-01-04T07:36:50.472Z,100044.09
2023-01-04T07:39:18.293Z,100036.16
2023-01-04T07:41:46.328Z,100035.19
2023-01-04T07:44:15.971Z,100048.47
2023-01-04T07:46:43.364Z,100039.66
2023-01-04T07:49:17.845Z,100047.50
2023-01-04T07:51:47.576Z,100027.94
2023-01-04T07:54:15.651Z,100043.00
2023-01-04T07:56:43.598Z,100036.84
2023-01-04T07:59:11.988Z,100039.41
2023-01-04T08:01:39.651Z,100022.69
2023-01-04T08:04:07.688Z,100030.56
2023-01-04T08:06:36.367Z,100029.59
2023-01-04T08:09:04.339Z,100044.63
2023-01-04T08:11:32.336Z,100034.91
2023-01-04T08:13:58.931Z,100030.38
2023-01-04T08:16:34.759Z,100025.97
2023-01-04T08:19:14.566Z,100019.84
2023-01-04T08:21:42.039Z,100015.44
2023-01-04T08:24:11.222Z,100014.53
2023-01-04T08:26:38.436Z,100031.34
2023-01-04T08:29:05.038Z,100035.66
2023-01-04T08:31:33.528Z,100033.94
2023-01-04T08:34:03.398Z,100034.84
2023-01-04T08:36:33.648Z,100020.66
2023-01-04T08:39:02.706Z,100019.63
2023-01-04T08:41:57.142Z,100021.41
2023-01-04T08:44:22.152Z,100023.09
2023-01-04T08:46:49.540Z,100009.88
2023-01-04T08:49:16.507Z,100017.00
2023-01-04T08:51:44.391Z,100007.16
2023-01-04T08:54:11.758Z,99993.81
2023-01-04T08:56:39.325Z,99985.84
2023-01-04T08:59:06.520Z,99990.13
2023-01-04T09:01:35.214Z,99986.47
2023-01-04T09:04:02.299Z,99980.19
2023-01-04T09:06:30.196Z,99964.25
2023-01-04T09:08:57.703Z,99966.09
2023-01-04T09:11:25.985Z,99979.31
2023-01-04T09:14:09.427Z,99969.66
2023-01-04T09:16:38.198Z,99958.84
2023-01-04T09:19:06.682Z,99964.03
2023-01-04T09:21:33.633Z,99958.56
2023-01-04T09:24:00.576Z,99963.06
2023-01-04T09:26:27.110Z,99956.66
2023-01-04T09:28:55.782Z,99955.69
2023-01-04T09:31:26.078Z,99955.69
2023-01-04T09:36:40.705Z,99957.13
2023-01-04T09:39:09.873Z,99952.63
2023-01-04T09:41:48.028Z,99953.56
2023-01-04T09:44:54.499Z,99945.47
2023-01-04T09:47:39.789Z,99958.75
2023-01-04T09:50:43.268Z,99943.63
2023-01-04T09:53:16.823Z,99934.59
2023-01-04T09:55:49.852Z,99938.06
2023-01-04T09:58:36.458Z,99941.44
2023-01-04T10:01:06.356Z,99936.97
2023-01-04T10:03:34.295Z,99935.31
2023-01-04T10:06:02.546Z,99940.72
2023-01-04T10:08:31.389Z,99941.72
2023-01-04T10:11:35.978Z,99944.41
2023-01-04T10:14:21.090Z,99933.00
2023-01-04T10:17:23.821Z,99936.44
2023-01-04T10:22:49.437Z,99925.94
2023-01-04T10:25:16.587Z,99929.41
2023-01-04T10:28:05.915Z,99917.06
2023-01-04T10:30:47.739Z,99913.59
2023-01-04T10:33:18.639Z,99910.84
2023-01-04T10:35:46.024Z,99900.31
2023-01-04T10:38:25.567Z,99897.78
2023-01-04T10:40:54.360Z,99895.03
2023-01-04T10:44:10.988Z,99902.84
2023-01-04T10:46:48.318Z,99889.59
2023-01-04T10:49:35.149Z,99893.16
2023-01-04T10:52:12.513Z,99884.19
2023-01-04T10:54:47.915Z,99888.63
2023-01-04T10:57:28.994Z,99867.38
2023-01-04T11:00:04.176Z,99876.16
2023-01-04T11:02:38.316Z,99869.13
2023-01-04T11:05:12.862Z,99865.41
2023-01-04T11:07:58.087Z,99883.00
2023-01-04T11:10:37.855Z,99872.47
2023-01-04T11:13:06.750Z,99881.34
2023-01-04T11:15:34.768Z,99874.19
2023-01-04T11:18:05.983Z,99863.69
2023-01-04T11:20:37.742Z,99868.88
2023-01-04T11:23:13.033Z,99859.19
2023-01-04T11:25:50.461Z,99867.03
2023-01-04T11:28:39.159Z,99849.22
2023-01-04T11:31:19.895Z,99842.06
2023-01-04T11:33:59.515Z,99845.59
2023-01-04T11:36:44.598Z,99842.81
2023-01-04T11:39:22.834Z,99842.81
2023-01-04T11:42:04.010Z,99841.81
2023-01-04T11:44:32.687Z,99828.66
2023-01-04T11:47:08.263Z,99844.59
2023-01-04T11:49:36.756Z,99831.31
2023-01-04T11:52:08.782Z,99827.66
2023-01-04T11:54:35.344Z,99841.06
2023-01-04T11:57:11.087Z,99829.44
2023-01-04T11:59:38.951Z,99814.31
2023-01-04T12:02:59.670Z,99818.59
2023-01-04T12:05:28.732Z,99806.28
2023-01-04T12:07:59.161Z,99812.41
2023-01-04T12:10:28.057Z,99805.16
2023-01-04T12:12:56.821Z,99811.28
2023-01-04T12:15:37.673Z,99799.78
2023-01-04T12:18:13.162Z,99798.81
2023-01-04T12:20:39.773Z,99804.97
2023-01-04T12:23:07.195Z,99791.63
2023-01-04T12:25:45.363Z,99796.25
2023-01-04T12:28:41.664Z,99782.72
2023-01-04T12:31:21.118Z,99779.00
2023-01-04T12:34:15.646Z,99785.06
2023-01-04T12:36:44.733Z,99787.78
2023-01-04T12:39:14.768Z,99782.31
2023-01-04T12:41:41.349Z,99787.66
2023-01-04T12:44:40.767Z,99791.13
2023-01-04T12:47:49.088Z,99789.19
2023-01-04T12:50:18.852Z,99778.50
2023-01-04T12:55:43.818Z,99764.25
2023-01-04T13:02:14.676Z,99755.28
2023-01-04T13:04:41.793Z,99755.22
2023-01-04T13:07:19.207Z,99742.66
2023-01-04T13:09:52.062Z,99739.13
2023-01-04T13:12:45.481Z,99736.47
2023-01-04T13:15:44.309Z,99733.69
2023-01-04T13:18:24.548Z,99746.84
2023-01-04T13:20:51.224Z,99743.19
2023-01-04T13:23:18.566Z,99749.25
2023-01-04T13:25:45.121Z,99733.31
2023-01-04T13:28:18.496Z,99743.94
2023-01-04T13:30:46.682Z,99753.50
2023-01-04T13:33:27.129Z,99750.72
2023-01-04T13:36:10.760Z,99741.81
2023-01-04T13:38:40.322Z,99734.63
2023-01-04T13:41:22.745Z,99730.88
2023-01-04T13:44:16.191Z,99727.16
2023-01-04T13:46:43.700Z,99735.16
2023-01-04T13:49:15.459Z,99721.72
2023-01-04T13:51:42.092Z,99717.09
2023-01-04T13:54:23.871Z,99718.00
2023-01-04T13:56:55.644Z,99708.91
2023-01-04T13:59:23.477Z,99707.09
2023-01-04T14:01:50.760Z,99705.31
2023-01-04T14:04:27.114Z,99719.41
2023-01-04T14:06:57.815Z,99712.97
2023-01-04T14:09:31.333Z,99735.94
2023-01-04T14:12:07.242Z,99723.53
2023-01-04T14:15:01.054Z,99723.44
2023-01-04T14:17:35.284Z,99727.69
2023-01-04T14:20:26.622Z,99728.56
2023-01-04T14:22:56.156Z,99715.97
2023-01-04T14:25:41.182Z,99720.38
2023-01-04T14:28:24.471Z,99723.69
2023-01-04T14:31:13.883Z,99731.44
2023-01-04T14:33:52.501Z,99723.53
2023-01-04T14:36:27.222Z,99714.44
2023-01-04T14:39:12.957Z,99721.38
2023-01-04T14:41:52.610Z,99725.56
2023-01-04T14:44:21.973Z,99726.41
2023-01-04T14:46:53.628Z,99727.16
2023-01-04T14:49:22.457Z,99726.25
2023-01-04T14:51:54.413Z,99730.56
2023-01-04T14:54:25.602Z,99724.34
2023-01-04T14:56:57.496Z,99727.84
2023-01-04T14:59:25.801Z,99697.75
2023-01-04T15:01:53.994Z,99713.59
2023-01-04T15:04:21.818Z,99714.53
2023-01-04T15:06:51.328Z,99713.31
2023-01-04T15:09:18.591Z,99707.25
2023-01-04T15:11:45.260Z,99704.38
2023-01-04T15:14:12.690Z,99706.25
2023-01-04T15:16:39.866Z,99702.50
2023-01-04T15:19:07.331Z,99692.72
2023-01-04T15:21:40.614Z,99698.75
2023-01-04T15:24:10.055Z,99692.56
2023-01-04T15:26:37.755Z,99692.66
2023-01-04T15:29:07.069Z,99688.25
2023-01-04T15:31:38.944Z,99697.88
2023-01-04T15:34:06.730Z,99693.56
2023-01-04T15:36:35.022Z,99676.69
2023-01-04T15:39:02.303Z,99679.19
2023-01-04T15:41:47.153Z,99672.09
2023-01-04T15:44:14.431Z,99682.66
2023-01-04T15:46:41.084Z,99694.31
2023-01-04T15:49:13.323Z,99679.19
2023-01-04T15:51:43.712Z,99678.19
2023-01-04T15:54:10.965Z,99675.41
2023-01-04T15:56:37.587Z,99678.19
2023-01-04T15:59:04.984Z,99676.22
2023-01-04T16:01:31.660Z,99679.81
2023-01-04T16:03:58.933Z,99684.03
2023-01-04T16:06:26.644Z,99680.63
2023-01-04T16:08:53.930Z,99677.00
2023-01-04T16:11:23.752Z,99673.53
2023-01-04T16:13:52.692Z,99679.66
2023-01-04T16:16:20.969Z,99677.16
2023-01-04T16:18:50.175Z,99670.81
2023-01-04T16:21:21.059Z,99669.81
2023-01-04T16:24:03.935Z,99676.84
2023-01-04T16:26:32.928Z,99670.59
2023-01-04T16:29:01.064Z,99667.22
2023-01-04T16:31:36.228Z,99669.81
2023-01-04T16:34:05.065Z,99683.03
2023-01-04T16:36:31.894Z,99668.78
2023-01-04T16:38:59.046Z,99654.53
2023-01-04T16:41:26.016Z,99672.38
2023-01-04T16:43:59.736Z,99660.72
2023-01-04T16:46:36.907Z,99668.06
2023-01-04T16:49:05.694Z,99676.94
2023-01-04T16:51:34.637Z,99674.81
2023-01-04T16:54:03.729Z,99674.81
2023-01-04T16:56:31.412Z,99671.38
2023-01-04T16:58:58.685Z,99674.81
2023-01-04T17:01:28.383Z,99663.31
2023-01-04T17:03:58.852Z,99666.03
2023-01-04T17:06:28.616Z,99662.47
2023-01-04T17:08:57.209Z,99661.59
2023-01-04T17:14:16.687Z,99673.81
2023-01-04T17:16:43.938Z,99684.56
2023-01-04T17:19:11.213Z,99681.91
2023-01-04T17:21:37.761Z,99680.31
2023-01-04T17:24:04.843Z,99685.59
2023-01-04T17:26:33.179Z,99678.44
2023-01-04T17:29:01.364Z,99681.25
2023-01-04T17:31:31.210Z,99673.19
2023-01-04T17:33:57.975Z,99671.38
2023-01-04T17:36:25.548Z,99659.00
2023-01-04T17:38:52.263Z,99650.94
2023-01-04T17:41:22.455Z,99645.66
2023-01-04T17:43:51.993Z,99645.72
2023-01-04T17:46:23.419Z,99639.66
2023-01-04T17:48:58.878Z,99639.72
2023-01-04T17:51:40.250Z,99644.97
2023-01-04T17:54:08.648Z,99645.88
2023-01-04T17:56:37.076Z,99644.34
2023-01-04T17:59:06.778Z,99641.41
2023-01-04T18:01:35.386Z,99652.06
2023-01-04T18:04:03.134Z,99643.00
2023-01-04T18:06:33.324Z,99648.34
2023-01-04T18:09:00.832Z,99650.94
2023-01-04T18:11:28.218Z,99649.13
2023-01-04T18:13:54.961Z,99643.81
2023-01-04T18:16:28.066Z,99635.06
2023-01-04T18:18:57.457Z,99642.16
2023-01-04T18:21:30.296Z,99631.66
2023-01-04T18:27:20.000Z,99634.16
2023-01-04T18:29:33.717Z,99628.72
2023-01-04T18:32:01.280Z,99622.72
2023-01-04T18:34:28.001Z,99619.03
2023-01-04T18:36:55.320Z,99623.72
2023-01-04T18:39:22.291Z,99630.06
2023-01-04T18:41:49.549Z,99621.84
2023-01-04T18:44:32.790Z,99603.25
2023-01-04T18:47:01.525Z,99619.19
2023-01-04T18:49:28.157Z,99616.59
2023-01-04T18:51:55.005Z,99621.06
2023-01-04T18:54:21.874Z,99618.72
2023-01-04T18:56:49.112Z,99615.41
2023-01-04T18:59:18.749Z,99632.31
2023-01-04T19:01:46.459Z,99647.38
2023-01-04T19:04:16.058Z,99633.25
2023-01-04T19:06:43.349Z,99633.25
2023-01-04T19:09:10.157Z,99632.41
2023-01-04T19:11:37.030Z,99629.78
2023-01-04T19:14:04.080Z,99622.44
2023-01-04T19:16:31.982Z,99621.59
2023-01-04T19:18:59.685Z,99615.41
2023-01-04T19:21:27.967Z,99612.66
2023-01-04T19:23:54.813Z,99624.31
2023-01-04T19:26:22.630Z,99624.25
2023-01-04T19:28:49.930Z,99627.63
2023-01-04T19:31:18.450Z,99630.38
2023-01-04T19:33:45.829Z,99628.63
2023-01-04T19:36:15.106Z,99617.81
2023-01-04T19:38:42.166Z,99619.63
2023-01-04T19:41:15.744Z,99618.84
2023-01-04T19:43:42.921Z,99611.63
2023-01-04T19:46:11.950Z,99611.63
2023-01-04T19:48:39.336Z,99624.16
2023-01-04T19:51:11.895Z,99616.03
2023-01-04T19:53:39.122Z,99624.03
2023-01-04T19:56:07.149Z,99640.03
2023-01-04T19:58:34.229Z,99638.44
2023-01-04T20:01:01.258Z,99648.28
2023-01-04T20:03:27.977Z,99642.03
2023-01-04T20:05:55.284Z,99652.59
2023-01-04T20:08:22.500Z,99642.09
2023-01-04T20:10:56.109Z,99652.75
2023-01-04T20:13:23.279Z,99658.03
2023-01-04T20:15:51.542Z,99663.50
2023-01-04T20:18:18.856Z,99648.44
2023-01-04T20:20:46.569Z,99638.91
2023-01-04T20:23:14.930Z,99661.13
2023-01-04T20:25:44.788Z,99679.06
2023-01-04T20:28:12.123Z,99670.47
2023-01-04T20:30:40.248Z,99668.13
2023-01-04T20:33:07.764Z,99664.00
2023-01-04T20:35:38.904Z,99688.47
2023-01-04T20:38:05.461Z,99702.00
2023-01-04T20:40:33.732Z,99700.44
2023-01-04T20:43:18.865Z,99662.72
2023-01-04T20:45:47.787Z,99700.44
2023-01-04T20:48:15.825Z,99687.47
2023-01-04T20:50:43.420Z,99687.59
2023-01-04T20:53:11.318Z,99686.75
2023-01-04T20:55:40.589Z,99700.06
2023-01-04T20:58:11.804Z,99697.63
2023-01-04T21:00:39.729Z,99694.06
2023-01-04T21:03:08.148Z,99691.53
2023-01-04T21:05:40.732Z,99701.28
2023-01-04T21:08:07.946Z,99701.38
2023-01-04T21:10:36.205Z,99706.63
2023-01-04T21:13:03.750Z,99703.09
2023-01-04T21:15:31.259Z,99712.22
2023-01-04T21:17:57.911Z,99705.94
2023-01-04T21:20:25.418Z,99708.56
2023-01-04T21:22:51.964Z,99706.94
2023-01-04T21:25:19.189Z,99701.63
2023-01-04T21:27:45.752Z,99708.56
